KACK

Nantucket Memorial Airport

Nantucket, Massachusetts, USA
KACK 202322Z 2100/2124 34010KT P6SM SCT070 FM210700 32012KT P6SM SKC FM211800 29006KT P6SM SKC FM212000 26008KT P6SM SKC
Issued Valid From Valid To
Apr-20 @ 23:22 UTC
(5 hours ago)
Apr-21 @ 00:00 UTC
(4 hours ago)
Apr-22 @ 00:00 UTC
(in 20 hours)
Apr-21 @ 00:00 to Apr-21 @ 07:00
KACK 202322Z 2100/2124 34010KT P6SM SCT070
Wind Visibility Clouds
340° at 10 knots Greater than 6 miles
  • Scattered at 7,000' AGL
From Apr-21 @ 07:00 to Apr-21 @ 18:00
FM210700 32012KT P6SM SKC
Wind Visibility Clouds
320° at 12 knots Greater than 6 miles
  • Clear skies
From Apr-21 @ 18:00 to Apr-21 @ 20:00
FM211800 29006KT P6SM SKC
Wind Visibility Clouds
290° at 6 knots Greater than 6 miles
  • Clear skies
From Apr-21 @ 20:00 to Apr-22 @ 00:00
FM212000 26008KT P6SM SKC
Wind Visibility Clouds
260° at 8 knots Greater than 6 miles
  • Clear skies
KACK 202322Z 2100/2124 34010KT P6SM SCT070 FM210700 32012KT P6SM SKC FM211800 29006KT P6SM SKC FM212000 26008KT P6SM SKC
Issued Apr-20 @ 23:22 UTC
(5 hours ago)
Valid From Apr-21 @ 00:00 UTC
(4 hours ago)
Valid To Apr-22 @ 00:00 UTC
(in 20 hours)
Apr-21 @ 00:00 - Apr-21 @ 07:00
Wind Visibility
340° at 10 knots Greater than 6 miles
Clouds
  • Scattered at 7,000' AGL
From Apr-21 @ 07:00 - Apr-21 @ 18:00
Wind Visibility
320° at 12 knots Greater than 6 miles
Clouds
  • Clear skies
From Apr-21 @ 18:00 - Apr-21 @ 20:00
Wind Visibility
290° at 6 knots Greater than 6 miles
Clouds
  • Clear skies
From Apr-21 @ 20:00 - Apr-22 @ 00:00
Wind Visibility
260° at 8 knots Greater than 6 miles
Clouds
  • Clear skies